Estación Meteorológica Peña el Pijo (Robertgarden) [ 11/12/18 20:40:35 CET ]

Fecha Hora Presion(HPa) Temp (°C) Humedad % Rocio (°C) Viento ( m/s) Direccion Lluvia 1Hora(mm) Lluvia 24H(mm) LLuvia Total(mm)
2018-May-21 01:01:49 1005.400 8.8 78 5.1       0.51 216.00
2018-May-21 02:02:05 1005.300 7.8 81 4.8       0.51 216.00
2018-May-21 03:02:06 1004.900 7.3 83 4.6       0.51 216.00
2018-May-21 04:02:24 1004.500 7.8 84 5.3       0.51 216.00
2018-May-21 05:09:01 1004.300 8.1 85 5.7       0.51 216.00
2018-May-21 06:01:28 1004.300 8.1 85 5.7       0.51 216.00
2018-May-21 07:01:53 1004.300 7.4 85 5.0       0.51 216.00
2018-May-21 08:01:54 1004.600 9.2 88 7.3       0.51 216.00
2018-May-21 09:01:44 1004.400 13.6 83 10.7       0.51 216.00
2018-May-21 10:01:52 1004.200 17.8 62 10.4       0.51 216.00
2018-May-21 11:01:54 1004.000 21.2 47 9.4       0.51 216.00
2018-May-21 12:01:43 1004.000 19.9 46 7.9       0.51 216.00
2018-May-21 13:01:33 1004.100 14.9 60 7.2       0.51 216.00
2018-May-21 14:01:40 1004.400 14.8 65 8.3       0.51 216.00
2018-May-21 15:01:38 1004.900 12.4 71 7.3       0.51 216.00
2018-May-21 16:01:35 1004.500 12.1 76 8.0     0.51 1.03 216.52
2018-May-21 17:01:36 1004.200 11.8 81 8.7     1.55 2.07 218.07
2018-May-21 18:01:32 1003.800 13.2 79 9.6       2.07 218.07
2018-May-21 19:01:51 1003.700 16.1 66 9.8       2.07 218.07
2018-May-21 20:01:41 1003.900 15.8 65 9.2       2.07 218.07
2018-May-21 21:01:42 1004.500 12.9 69 7.4       2.07 218.07
2018-May-21 22:01:51 1005.400 10.4 76 6.3       2.07 218.07
2018-May-21 23:01:52 1006.100 9.0 79 5.5       2.07 218.07

Temperatura Máxima:21°    Temperatura Mínima:
Presión Máxima:1006.100 Hpa    Presión Mínima:1003.700 Hpa


Volver